Time;durP1;ratioP1;P1;durP2;ratioP2;P2;SDS_P1;SDS_P2;PMS_P1;PMS_P2;Temp;Humidity;BMP_temperature;BMP_pressure;BME280_temperature;BME280_humidity;BME280_pressure;Samples;Min_cycle;Max_cycle;Signal;HPM_P1;HPM_P2
2023/01/14 00:01:10;;;;;;;23.98;4.05;;;;;;;-144.87;100.00;61487.56;5047923;28;20052;-77
2023/01/14 00:03:36;;;;;;;18.73;3.38;;;;;;;-144.87;100.00;61487.56;5065708;28;20036;-77
2023/01/14 00:06:03;;;;;;;27.52;3.85;;;;;;;-144.87;100.00;61487.56;5064322;28;20091;-78
2023/01/14 00:08:30;;;;;;;28.88;5.35;;;;;;;-144.87;100.00;61487.56;5047813;28;20449;-77
2023/01/14 00:11:04;;;;;;;25.30;3.20;;;;;;;-144.87;100.00;61487.56;5038960;28;20403;-79
2023/01/14 00:13:33;;;;;;;25.23;4.03;;;;;;;-144.87;100.00;61487.56;5066538;28;20039;-77
2023/01/14 00:15:59;;;;;;;20.75;4.13;;;;;;;-144.87;100.00;61487.56;5043734;28;20044;-77
2023/01/14 00:18:26;;;;;;;25.75;3.65;;;;;;;-144.87;100.00;61487.56;5029526;28;20534;-77
2023/01/14 00:21:03;;;;;;;27.38;4.57;;;;;;;-144.87;100.00;61487.56;5062765;28;20036;-78
2023/01/14 00:23:30;;;;;;;19.75;3.72;;;;;;;-144.87;100.00;61487.56;5065108;28;20024;-78
2023/01/14 00:26:12;;;;;;;30.92;4.47;;;;;;;-144.87;100.00;61487.56;5063435;28;20059;-77
2023/01/14 00:28:39;;;;;;;34.20;4.45;;;;;;;-144.87;100.00;61487.56;5062356;28;20032;-78
2023/01/14 00:31:17;;;;;;;31.73;4.35;;;;;;;-144.87;100.00;61487.56;5062954;28;20037;-78
2023/01/14 00:33:44;;;;;;;21.15;3.20;;;;;;;-144.87;100.00;61487.56;5046966;28;20025;-77
2023/01/14 00:36:13;;;;;;;25.55;3.83;;;;;;;-144.87;100.00;61487.56;5065366;28;20032;-77
2023/01/14 00:38:40;;;;;;;29.55;4.03;;;;;;;-144.87;100.00;61487.56;5063665;28;20255;-75
2023/01/14 00:41:15;;;;;;;30.58;6.20;;;;;;;-144.87;100.00;61487.56;5045069;28;20493;-78
2023/01/14 00:43:44;;;;;;;24.98;3.83;;;;;;;-144.87;100.00;61487.56;5030219;28;20090;-77
2023/01/14 00:46:13;;;;;;;20.50;3.40;;;;;;;-144.87;100.00;61487.56;5059784;28;20067;-78
2023/01/14 00:48:40;;;;;;;32.13;5.07;;;;;;;-144.87;100.00;61487.56;5030040;28;20544;-77
2023/01/14 00:51:07;;;;;;;18.00;3.50;;;;;;;-144.87;100.00;61487.56;5064142;28;20106;-76
2023/01/14 00:53:34;;;;;;;26.13;3.33;;;;;;;-144.87;100.00;61487.56;5045526;28;20391;-77
2023/01/14 00:56:01;;;;;;;25.73;5.85;;;;;;;-144.87;100.00;61487.56;5029409;28;20451;-77
2023/01/14 00:58:27;;;;;;;28.35;4.55;;;;;;;-144.87;100.00;61487.56;5064293;28;20123;-77
2023/01/14 01:00:55;;;;;;;22.25;3.50;;;;;;;-144.87;100.00;61487.56;5058475;28;20070;-78
2023/01/14 01:03:23;;;;;;;26.45;4.15;;;;;;;-144.87;100.00;61487.56;5031815;28;20503;-77
2023/01/14 01:05:50;;;;;;;24.02;3.63;;;;;;;-144.87;100.00;61487.56;5058197;28;20487;-78
2023/01/14 01:08:18;;;;;;;22.92;3.20;;;;;;;-144.87;100.00;61487.56;5047712;28;21164;-78
2023/01/14 01:10:48;;;;;;;22.33;3.95;;;;;;;-144.87;100.00;61487.56;5036979;28;20040;-78
2023/01/14 01:13:14;;;;;;;24.30;3.83;;;;;;;-144.87;100.00;61487.56;5045487;28;20449;-75
2023/01/14 01:15:42;;;;;;;31.33;5.22;;;;;;;-144.87;100.00;61487.56;5046622;28;20487;-76
2023/01/14 01:18:10;;;;;;;25.30;4.47;;;;;;;-144.87;100.00;61487.56;5062599;28;20047;-76
2023/01/14 01:20:37;;;;;;;27.35;4.63;;;;;;;-144.87;100.00;61487.56;5063933;28;20372;-79
2023/01/14 01:23:04;;;;;;;23.75;4.18;;;;;;;-144.87;100.00;61487.56;5067954;28;20384;-77
2023/01/14 01:25:31;;;;;;;21.42;3.65;;;;;;;-144.87;100.00;61487.56;5065727;28;20082;-77
2023/01/14 01:27:58;;;;;;;26.65;4.97;;;;;;;-144.87;100.00;61487.56;5050479;28;20089;-79
2023/01/14 01:30:25;;;;;;;25.70;4.28;;;;;;;-144.87;100.00;61487.56;5068158;28;20554;-78
2023/01/14 01:32:52;;;;;;;33.28;6.18;;;;;;;-144.87;100.00;61487.56;5068000;28;20035;-75
2023/01/14 01:35:24;;;;;;;24.00;4.47;;;;;;;-144.87;100.00;61487.56;5050417;28;20881;-77
2023/01/14 01:37:51;;;;;;;19.52;3.67;;;;;;;-144.87;100.00;61487.56;5063402;28;20075;-76
2023/01/14 01:40:18;;;;;;;25.95;4.28;;;;;;;-144.87;100.00;61487.56;5067208;28;20424;-77
2023/01/14 01:42:57;;;;;;;31.52;4.60;;;;;;;-144.87;100.00;61487.56;5031780;28;20108;-78
2023/01/14 01:45:47;;;;;;;34.47;5.25;;;;;;;-144.87;100.00;61487.56;5032253;28;20033;-77
2023/01/14 01:48:23;;;;;;;35.00;4.65;;;;;;;-144.87;100.00;61487.56;5016494;28;20097;-77
2023/01/14 01:50:56;;;;;;;25.67;4.80;;;;;;;-144.87;100.00;61487.56;5065484;28;21618;-78
2023/01/14 01:53:23;;;;;;;30.05;4.68;;;;;;;-144.87;100.00;61487.56;5036712;28;20039;-76
2023/01/14 01:55:53;;;;;;;27.75;5.30;;;;;;;-144.87;100.00;61487.56;5050572;28;20110;-76
2023/01/14 01:58:21;;;;;;;23.77;4.25;;;;;;;-144.87;100.00;61487.56;5047289;28;20032;-77
2023/01/14 02:00:47;;;;;;;26.90;5.50;;;;;;;-144.87;100.00;61487.56;5032800;28;20044;-77
2023/01/14 02:03:23;;;;;;;27.60;4.55;;;;;;;-144.87;100.00;61487.56;5050001;28;20040;-76
2023/01/14 02:05:52;;;;;;;22.42;3.90;;;;;;;-144.87;100.00;61487.56;5065626;28;20048;-77
2023/01/14 02:08:20;;;;;;;29.55;4.30;;;;;;;-144.87;100.00;61487.56;5046116;28;20032;-75
2023/01/14 02:10:56;;;;;;;36.72;5.45;;;;;;;-144.87;100.00;61487.56;5060403;28;20067;-76
2023/01/14 02:13:41;;;;;;;30.30;4.80;;;;;;;-144.87;100.00;61487.56;5037750;28;20036;-77
2023/01/14 02:16:16;;;;;;;26.35;4.57;;;;;;;-144.87;100.00;61487.56;5069770;28;20458;-77
2023/01/14 02:19:01;;;;;;;31.90;5.47;;;;;;;-144.87;100.00;61487.56;5049637;28;20037;-78
2023/01/14 02:21:33;;;;;;;37.38;5.15;;;;;;;-144.87;100.00;61487.56;5042786;28;20116;-76
2023/01/14 02:24:43;;;;;;;28.95;4.90;;;;;;;-144.87;100.00;61487.56;5034807;28;20028;-79
2023/01/14 02:27:30;;;;;;;44.55;6.30;;;;;;;-144.87;100.00;61487.56;5050502;28;20051;-76
2023/01/14 02:30:14;;;;;;;33.05;4.28;;;;;;;-144.87;100.00;61487.56;5062327;28;20032;-76
2023/01/14 02:33:18;;;;;;;39.03;5.43;;;;;;;-144.87;100.00;61487.56;5044186;28;20047;-77
2023/01/14 02:36:04;;;;;;;28.38;5.32;;;;;;;-144.87;100.00;61487.56;5043026;28;20143;-76
2023/01/14 02:38:42;;;;;;;34.67;4.82;;;;;;;-144.87;100.00;61487.56;5047801;28;20043;-76
2023/01/14 02:41:16;;;;;;;43.30;6.43;;;;;;;-144.87;100.00;61487.56;5033929;28;20082;-76
2023/01/14 02:44:10;;;;;;;37.67;4.80;;;;;;;-144.87;100.00;61487.56;5050658;28;20190;-76
2023/01/14 02:46:52;;;;;;;34.47;4.28;;;;;;;-144.87;100.00;61487.56;5031162;28;20033;-76
2023/01/14 02:49:24;;;;;;;33.75;4.68;;;;;;;-144.87;100.00;61487.56;5041207;28;20548;-76
2023/01/14 02:51:50;;;;;;;38.30;5.95;;;;;;;-144.87;100.00;61487.56;5018786;28;20033;-76
2023/01/14 02:54:19;;;;;;;29.77;4.65;;;;;;;-144.87;100.00;61487.56;5032674;28;20032;-76
2023/01/14 02:56:47;;;;;;;31.65;5.80;;;;;;;-144.87;100.00;61487.56;5049082;28;20456;-76
2023/01/14 02:59:37;;;;;;;37.88;5.57;;;;;;;-144.87;100.00;61487.56;5019221;28;20387;-77
2023/01/14 03:02:23;;;;;;;35.45;5.30;;;;;;;-144.87;100.00;61487.56;5026341;28;20463;-77
2023/01/14 03:04:58;;;;;;;36.47;5.15;;;;;;;-144.87;100.00;61487.56;5048165;28;20040;-77
2023/01/14 03:07:34;;;;;;;37.28;5.57;;;;;;;-144.87;100.00;61487.56;5050077;28;20020;-76
2023/01/14 03:10:14;;;;;;;39.30;6.30;;;;;;;-144.87;100.00;61487.56;5045210;28;20115;-77
2023/01/14 03:12:47;;;;;;;45.00;5.93;;;;;;;-144.87;100.00;61487.56;5064254;28;20509;-77
2023/01/14 03:15:22;;;;;;;38.83;5.50;;;;;;;-144.87;100.00;61487.56;5030140;28;20029;-76
2023/01/14 03:18:03;;;;;;;48.75;6.57;;;;;;;-144.87;100.00;61487.56;5030449;28;20028;-76
2023/01/14 03:20:33;;;;;;;36.15;5.05;;;;;;;-144.87;100.00;61487.56;5062839;28;20120;-76
2023/01/14 03:23:04;;;;;;;35.50;5.20;;;;;;;-144.87;100.00;61487.56;5047731;28;20044;-78
2023/01/14 03:25:32;;;;;;;37.10;6.35;;;;;;;-144.87;100.00;61487.56;5026976;28;20021;-77
2023/01/14 03:28:06;;;;;;;36.30;5.45;;;;;;;-144.87;100.00;61487.56;5026967;28;20539;-77
2023/01/14 03:30:36;;;;;;;50.47;6.57;;;;;;;-144.87;100.00;61487.56;5015257;28;20032;-76
2023/01/14 03:33:10;;;;;;;40.85;7.30;;;;;;;-144.87;100.00;61487.56;5031911;28;20093;-77
2023/01/14 03:35:40;;;;;;;34.33;5.20;;;;;;;-144.87;100.00;61487.56;5063538;28;20032;-76
2023/01/14 03:38:33;;;;;;;40.40;6.95;;;;;;;-144.87;100.00;61487.56;5066692;28;20726;-76
2023/01/14 03:41:00;;;;;;;41.38;6.15;;;;;;;-144.87;100.00;61487.56;5029032;28;20515;-78
2023/01/14 03:43:42;;;;;;;34.35;5.95;;;;;;;-144.87;100.00;61487.56;5047341;28;20040;-76
2023/01/14 03:46:09;;;;;;;37.38;6.45;;;;;;;-144.87;100.00;61487.56;5061370;28;20109;-76
2023/01/14 03:48:36;;;;;;;40.40;7.72;;;;;;;-144.87;100.00;61487.56;5048765;28;20064;-77
2023/01/14 03:51:08;;;;;;;37.83;8.38;;;;;;;-144.87;100.00;61487.56;5065746;28;20061;-77
2023/01/14 03:53:39;;;;;;;30.55;5.35;;;;;;;-144.87;100.00;61487.56;5066288;28;20048;-77
2023/01/14 03:56:26;;;;;;;39.45;6.53;;;;;;;-144.87;100.00;61487.56;5046903;28;20080;-76
2023/01/14 03:58:57;;;;;;;46.75;7.55;;;;;;;-144.87;100.00;61487.56;5063265;28;20036;-76
2023/01/14 04:01:37;;;;;;;50.55;7.90;;;;;;;-144.87;100.00;61487.56;5046662;28;20032;-76
2023/01/14 04:04:04;;;;;;;41.95;6.47;;;;;;;-144.87;100.00;61487.56;5063675;28;20036;-76
2023/01/14 04:06:30;;;;;;;51.63;8.65;;;;;;;-144.87;100.00;61487.56;5014307;28;20040;-76
2023/01/14 04:08:57;;;;;;;37.33;6.88;;;;;;;-144.87;100.00;61487.56;5063619;28;20399;-76
2023/01/14 04:11:23;;;;;;;47.72;6.38;;;;;;;-144.87;100.00;61487.56;5048345;28;20045;-76
2023/01/14 04:16:34;;;;;;;38.78;7.72;;;;;;;-144.87;100.00;61487.56;5065983;28;20036;-76
2023/01/14 04:19:00;;;;;;;50.97;7.65;;;;;;;-144.87;100.00;61487.56;5048520;28;20093;-77
2023/01/14 04:21:27;;;;;;;43.25;6.82;;;;;;;-144.87;100.00;61487.56;5048197;28;20044;-77
2023/01/14 04:23:53;;;;;;;37.28;7.15;;;;;;;-144.87;100.00;61487.56;5027558;28;20548;-76
2023/01/14 04:26:19;;;;;;;36.22;7.53;;;;;;;-144.87;100.00;61487.56;5047673;28;20043;-76
2023/01/14 04:28:45;;;;;;;47.35;7.32;;;;;;;-144.87;100.00;61487.56;5066849;28;20036;-76
2023/01/14 04:31:12;;;;;;;58.88;10.13;;;;;;;-144.87;100.00;61487.56;5044467;28;20522;-77
2023/01/14 04:33:38;;;;;;;43.25;8.10;;;;;;;-144.87;100.00;61487.56;5066179;28;20119;-76
2023/01/14 04:36:04;;;;;;;53.45;7.88;;;;;;;-144.87;100.00;61487.56;5065778;28;20056;-76
2023/01/14 04:38:31;;;;;;;53.20;8.15;;;;;;;-144.87;100.00;61487.56;5065621;28;20101;-77
2023/01/14 04:40:57;;;;;;;47.92;8.27;;;;;;;-144.87;100.00;61487.56;5037882;28;20514;-78
2023/01/14 04:43:24;;;;;;;43.75;6.35;;;;;;;-144.87;100.00;61487.56;5046505;28;20043;-76
2023/01/14 04:45:51;;;;;;;37.17;6.82;;;;;;;-144.87;100.00;61487.56;5027942;28;20047;-77
2023/01/14 04:48:18;;;;;;;56.00;7.30;;;;;;;-144.87;100.00;61487.56;5045552;28;20674;-77
2023/01/14 04:50:46;;;;;;;48.88;9.52;;;;;;;-144.87;100.00;61487.56;5031997;28;20601;-76
2023/01/14 04:53:17;;;;;;;43.03;6.68;;;;;;;-144.87;100.00;61487.56;5048338;28;20074;-76
2023/01/14 04:55:45;;;;;;;47.65;7.97;;;;;;;-144.87;100.00;61487.56;5063609;28;20048;-77
2023/01/14 04:58:14;;;;;;;49.22;8.38;;;;;;;-144.87;100.00;61487.56;5068799;28;20036;-75
2023/01/14 05:00:41;;;;;;;48.80;9.00;;;;;;;-144.87;100.00;61487.56;5050320;28;20483;-75
2023/01/14 05:03:10;;;;;;;54.78;8.80;;;;;;;-144.87;100.00;61487.56;5064677;28;20103;-76
2023/01/14 05:05:36;;;;;;;53.55;7.53;;;;;;;-144.87;100.00;61487.56;5055081;28;20062;-76
2023/01/14 05:08:04;;;;;;;58.00;8.73;;;;;;;-144.87;100.00;61487.56;5076023;28;20032;-78
2023/01/14 05:10:31;;;;;;;43.50;8.30;;;;;;;-144.87;100.00;61487.56;5041885;28;20040;-78
2023/01/14 05:12:57;;;;;;;60.28;9.32;;;;;;;-144.87;100.00;61487.56;5068217;28;20028;-77
2023/01/14 05:15:28;;;;;;;51.10;7.82;;;;;;;-144.87;100.00;61487.56;5066050;28;20037;-79
2023/01/14 05:17:55;;;;;;;44.40;8.43;;;;;;;-144.87;100.00;61487.56;5033949;28;20056;-77
2023/01/14 05:20:26;;;;;;;48.08;6.88;;;;;;;-144.87;100.00;61487.56;5033105;28;20504;-78
2023/01/14 05:22:57;;;;;;;55.33;10.98;;;;;;;-144.87;100.00;61487.56;5069086;28;20044;-78
2023/01/14 05:25:23;;;;;;;54.42;7.38;;;;;;;-144.87;100.00;61487.56;5059604;28;20040;-79
2023/01/14 05:27:50;;;;;;;49.60;7.25;;;;;;;-144.87;100.00;61487.56;5052401;28;20530;-77
2023/01/14 05:30:16;;;;;;;55.25;9.75;;;;;;;-144.87;100.00;61487.56;5034432;28;20098;-77
2023/01/14 05:32:42;;;;;;;43.95;6.38;;;;;;;-144.87;100.00;61487.56;5067077;28;20032;-77
2023/01/14 05:35:09;;;;;;;47.90;7.65;;;;;;;-144.87;100.00;61487.56;5033576;28;21530;-77
2023/01/14 05:37:35;;;;;;;48.28;8.20;;;;;;;-144.87;100.00;61487.56;5050901;28;20047;-77
2023/01/14 05:40:02;;;;;;;43.38;6.30;;;;;;;-144.87;100.00;61487.56;5033126;28;20032;-77
2023/01/14 05:47:57;;;;;;;41.78;6.20;;;;;;;-144.87;100.00;61487.56;5042281;28;20040;-78
2023/01/14 05:50:24;;;;;;;49.13;6.97;;;;;;;-144.87;100.00;61487.56;5033785;28;20045;-77
2023/01/14 05:52:50;;;;;;;43.55;6.03;;;;;;;-144.87;100.00;61487.56;5048100;28;20040;-77
2023/01/14 05:55:16;;;;;;;37.95;5.93;;;;;;;-144.87;100.00;61487.56;5048010;28;20518;-77
2023/01/14 05:57:43;;;;;;;36.83;6.30;;;;;;;-144.87;100.00;61487.56;5049210;28;20507;-77
2023/01/14 06:06:20;;;;;;;44.17;5.35;;;;;;;-144.87;100.00;61487.56;5068099;28;21692;-77
2023/01/14 06:08:07;;;;;;;38.00;6.00;;;;;;;-144.87;100.00;61487.56;5031933;28;20108;-76
2023/01/14 06:10:36;;;;;;;42.03;6.97;;;;;;;-144.87;100.00;61487.56;5065741;28;20071;-76
2023/01/14 06:13:06;;;;;;;35.33;5.32;;;;;;;-144.87;100.00;61487.56;5011696;28;20064;-75
2023/01/14 06:15:35;;;;;;;47.27;6.50;;;;;;;-144.87;100.00;61487.56;5033036;28;20430;-76
2023/01/14 06:18:15;;;;;;;30.65;5.28;;;;;;;-144.87;100.00;61487.56;5064633;28;20076;-77
2023/01/14 06:20:44;;;;;;;35.50;5.97;;;;;;;-144.87;100.00;61487.56;5065991;28;20032;-77
2023/01/14 06:23:11;;;;;;;36.08;5.85;;;;;;;-144.87;100.00;61487.56;5046328;28;20060;-77
2023/01/14 06:25:37;;;;;;;39.55;5.18;;;;;;;-144.87;100.00;61487.56;5046450;28;20033;-75
2023/01/14 06:28:03;;;;;;;35.38;7.43;;;;;;;-144.87;100.00;61487.56;5047530;28;20731;-76
2023/01/14 06:30:30;;;;;;;33.38;5.35;;;;;;;-144.87;100.00;61487.56;5046659;28;20116;-76
2023/01/14 06:32:56;;;;;;;37.88;4.78;;;;;;;-144.87;100.00;61487.56;5049709;28;20407;-76
2023/01/14 06:35:23;;;;;;;39.45;5.13;;;;;;;-144.87;100.00;61487.56;5048241;28;20139;-77
2023/01/14 06:37:49;;;;;;;35.50;5.95;;;;;;;-144.87;100.00;61487.56;5032079;28;20050;-76
2023/01/14 06:40:16;;;;;;;40.45;5.85;;;;;;;-144.87;100.00;61487.56;5031704;28;20032;-76
2023/01/14 06:42:42;;;;;;;41.03;5.50;;;;;;;-144.87;100.00;61487.56;5047032;28;20446;-76
2023/01/14 06:45:10;;;;;;;33.15;4.97;;;;;;;-144.87;100.00;61487.56;5048174;28;20032;-76
2023/01/14 06:47:36;;;;;;;36.88;6.82;;;;;;;-144.87;100.00;61487.56;5047233;28;20028;-76
2023/01/14 06:50:04;;;;;;;37.25;4.70;;;;;;;-144.87;100.00;61487.56;5021582;28;20060;-76
2023/01/14 06:52:30;;;;;;;31.35;4.13;;;;;;;-144.87;100.00;61487.56;5063428;28;20028;-76
2023/01/14 06:54:58;;;;;;;39.78;5.80;;;;;;;-144.87;100.00;61487.56;5067080;28;20395;-76
2023/01/14 06:57:25;;;;;;;37.88;5.22;;;;;;;-144.87;100.00;61487.56;5040031;28;20064;-77
2023/01/14 06:59:52;;;;;;;38.40;5.20;;;;;;;-144.87;100.00;61487.56;5065892;28;20040;-76
2023/01/14 07:02:18;;;;;;;35.63;5.15;;;;;;;-144.87;100.00;61487.56;5065513;28;20079;-76
2023/01/14 07:04:45;;;;;;;32.25;4.80;;;;;;;-144.87;100.00;61487.56;5049955;28;20048;-76
2023/01/14 07:07:11;;;;;;;43.08;8.35;;;;;;;-144.87;100.00;61487.56;5056229;28;20203;-77
2023/01/14 07:09:37;;;;;;;39.50;5.60;;;;;;;-144.87;100.00;61487.56;5029547;28;20040;-77
2023/01/14 07:12:04;;;;;;;41.22;5.82;;;;;;;-144.87;100.00;61487.56;5043703;28;20059;-76
2023/01/14 07:14:30;;;;;;;45.53;7.35;;;;;;;-144.87;100.00;61487.56;5059544;28;20097;-76
2023/01/14 07:16:57;;;;;;;35.55;6.47;;;;;;;-144.87;100.00;61487.56;5050821;28;20534;-81
2023/01/14 07:19:23;;;;;;;36.70;5.90;;;;;;;-144.87;100.00;61487.56;5066679;28;20032;-76
2023/01/14 07:21:50;;;;;;;28.13;5.15;;;;;;;-144.87;100.00;61487.56;5048867;28;20044;-77
2023/01/14 07:24:16;;;;;;;32.40;4.97;;;;;;;-144.87;100.00;61487.56;5066818;28;20024;-77
2023/01/14 07:26:43;;;;;;;33.92;5.20;;;;;;;-144.87;100.00;61487.56;5065321;28;20347;-77
2023/01/14 07:29:09;;;;;;;37.97;6.15;;;;;;;-144.87;100.00;61487.56;5063890;28;20036;-77
2023/01/14 07:31:36;;;;;;;37.03;5.82;;;;;;;-144.87;100.00;61487.56;5065389;28;20040;-77
2023/01/14 07:34:02;;;;;;;34.05;5.70;;;;;;;-144.87;100.00;61487.56;5048866;28;20040;-78
2023/01/14 07:36:28;;;;;;;36.28;5.15;;;;;;;-144.87;100.00;61487.56;5029345;28;20040;-78
2023/01/14 07:38:54;;;;;;;37.88;5.60;;;;;;;-144.87;100.00;61487.56;5032901;28;20512;-78
2023/01/14 07:41:22;;;;;;;43.35;5.93;;;;;;;-144.87;100.00;61487.56;5053994;28;20036;-78
2023/01/14 07:43:48;;;;;;;32.97;6.32;;;;;;;-144.87;100.00;61487.56;5037303;28;20047;-77
2023/01/14 07:46:18;;;;;;;39.47;6.43;;;;;;;-144.87;100.00;61487.56;5058166;28;20032;-77
2023/01/14 07:48:44;;;;;;;48.63;9.70;;;;;;;-144.87;100.00;61487.56;5039611;28;20074;-77
2023/01/14 07:51:20;;;;;;;36.33;5.63;;;;;;;-144.87;100.00;61487.56;5067788;28;20110;-77
2023/01/14 07:53:48;;;;;;;32.78;6.53;;;;;;;-144.87;100.00;61487.56;5065793;28;20025;-77
2023/01/14 07:56:15;;;;;;;30.73;6.13;;;;;;;-144.87;100.00;61487.56;5061782;28;20060;-77
2023/01/14 07:58:41;;;;;;;30.38;6.75;;;;;;;-144.87;100.00;61487.56;5032759;28;20128;-78
2023/01/14 08:01:09;;;;;;;30.30;6.35;;;;;;;-144.87;100.00;61487.56;5042324;28;20020;-77
2023/01/14 08:03:36;;;;;;;28.05;7.47;;;;;;;-144.87;100.00;61487.56;5067938;28;20040;-78
2023/01/14 08:06:04;;;;;;;25.20;5.88;;;;;;;-144.87;100.00;61487.56;5068618;28;20115;-77
2023/01/14 08:08:31;;;;;;;28.55;6.63;;;;;;;-144.87;100.00;61487.56;5068240;28;20483;-77
2023/01/14 08:11:16;;;;;;;37.13;6.32;;;;;;;-144.87;100.00;61487.56;5049288;28;20133;-77
2023/01/14 08:13:42;;;;;;;36.75;7.43;;;;;;;-144.87;100.00;61487.56;5057087;28;20320;-78
2023/01/14 08:16:09;;;;;;;29.50;6.72;;;;;;;-144.87;100.00;61487.56;5051635;28;20051;-78
2023/01/14 08:18:36;;;;;;;20.73;5.88;;;;;;;-144.87;100.00;61487.56;5034075;28;20084;-78
2023/01/14 08:21:06;;;;;;;26.75;6.88;;;;;;;-144.87;100.00;61487.56;5051072;28;20036;-78
2023/01/14 08:23:33;;;;;;;30.42;7.20;;;;;;;-144.87;100.00;61487.56;5037661;28;20119;-78
2023/01/14 08:26:01;;;;;;;25.33;6.57;;;;;;;-144.87;100.00;61487.56;5067703;28;20039;-77
2023/01/14 08:28:28;;;;;;;24.85;6.53;;;;;;;-144.87;100.00;61487.56;5067378;28;20419;-78
2023/01/14 08:31:04;;;;;;;22.98;7.53;;;;;;;-144.87;100.00;61487.56;5043955;28;20037;-78
2023/01/14 08:33:31;;;;;;;19.38;6.60;;;;;;;-144.87;100.00;61487.56;5073192;28;20110;-79
2023/01/14 08:36:06;;;;;;;28.48;6.88;;;;;;;-144.87;100.00;61487.56;5050580;28;20033;-79
2023/01/14 08:38:39;;;;;;;25.33;6.75;;;;;;;-144.87;100.00;61487.56;5033392;28;20025;-81
2023/01/14 08:41:08;;;;;;;16.17;6.22;;;;;;;-144.87;100.00;61487.56;5038344;28;20029;-79
2023/01/14 08:43:35;;;;;;;25.52;7.30;;;;;;;-144.87;100.00;61487.56;5073543;28;20055;-77
2023/01/14 08:46:03;;;;;;;17.42;7.25;;;;;;;-144.87;100.00;61487.56;5054620;28;20458;-78
2023/01/14 08:48:29;;;;;;;21.42;7.03;;;;;;;-144.87;100.00;61487.56;5038394;28;20029;-78
2023/01/14 08:51:01;;;;;;;19.67;7.07;;;;;;;-144.87;100.00;61487.56;5055315;28;20041;-78
2023/01/14 08:53:28;;;;;;;22.63;7.32;;;;;;;-144.87;100.00;61487.56;5070738;28;20036;-80
2023/01/14 08:55:58;;;;;;;17.88;7.00;;;;;;;-144.87;100.00;61487.56;5036093;28;20037;-79
2023/01/14 08:58:25;;;;;;;21.50;7.82;;;;;;;-144.87;100.00;61487.56;5073988;28;20040;-78
2023/01/14 09:00:59;;;;;;;19.63;7.60;;;;;;;-144.87;100.00;61487.56;5040744;28;20155;-77
2023/01/14 09:03:27;;;;;;;14.95;7.80;;;;;;;-144.87;100.00;61487.56;5041491;28;20040;-77
2023/01/14 09:06:01;;;;;;;15.05;7.63;;;;;;;-144.87;100.00;61487.56;5073142;28;20447;-77
2023/01/14 09:17:10;;;;;;;20.88;7.97;;;;;;;-144.87;100.00;61487.56;5056622;28;20483;-77
2023/01/14 09:19:56;;;;;;;20.48;8.32;;;;;;;-144.87;100.00;61487.56;5051935;28;20395;-77
2023/01/14 09:22:24;;;;;;;17.35;7.50;;;;;;;-144.87;100.00;61487.56;5055996;28;20417;-77
2023/01/14 09:24:51;;;;;;;15.55;7.25;;;;;;;-144.87;100.00;61487.56;5037267;28;20033;-77
2023/01/14 09:27:18;;;;;;;20.15;7.57;;;;;;;-144.87;100.00;61487.56;5055535;28;20036;-77
2023/01/14 09:29:44;;;;;;;16.00;7.72;;;;;;;-144.87;100.00;61487.56;5036199;28;20064;-76
2023/01/14 09:32:12;;;;;;;17.50;7.35;;;;;;;-144.87;100.00;61487.56;5072726;28;20556;-77
2023/01/14 09:34:47;;;;;;;12.23;6.72;;;;;;;-144.87;100.00;61487.56;5075714;28;20039;-78
2023/01/14 09:37:19;;;;;;;16.85;6.25;;;;;;;-144.87;100.00;61487.56;5073245;28;20036;-78
2023/01/14 09:39:46;;;;;;;20.55;6.90;;;;;;;-144.87;100.00;61487.56;5054777;28;20414;-78
2023/01/14 09:42:19;;;;;;;17.42;7.28;;;;;;;-144.87;100.00;61487.56;5068966;28;20044;-78
2023/01/14 09:44:45;;;;;;;14.55;7.00;;;;;;;-144.87;100.00;61487.56;5052315;28;20049;-78
2023/01/14 09:47:14;;;;;;;16.45;7.05;;;;;;;-144.87;100.00;61487.56;5052641;28;20048;-78
2023/01/14 09:49:40;;;;;;;14.18;6.18;;;;;;;-144.87;100.00;61487.56;5053239;28;20067;-77
2023/01/14 09:52:21;;;;;;;15.13;6.32;;;;;;;-144.87;100.00;61487.56;5053751;28;20033;-78
2023/01/14 09:54:51;;;;;;;;;;;;;;;-144.87;100.00;61487.56;5069747;28;20098;-78
2023/01/14 09:57:22;;;;;;;15.02;6.57;;;;;;;-144.87;100.00;61487.56;5069441;28;20663;-78
2023/01/14 10:00:39;;;;;;;20.27;7.00;;;;;;;-144.87;100.00;61487.56;5051679;28;20036;-77
2023/01/14 10:03:06;;;;;;;21.13;5.45;;;;;;;-144.87;100.00;61487.56;5035878;28;20055;-78
2023/01/14 10:05:33;;;;;;;13.27;5.57;;;;;;;-144.87;100.00;61487.56;5053393;28;20048;-78
2023/01/14 10:08:11;;;;;;;16.90;5.72;;;;;;;-144.87;100.00;61487.56;5036642;28;20039;-79
2023/01/14 10:10:43;;;;;;;20.58;6.05;;;;;;;-144.87;100.00;61487.56;5067182;28;20501;-77
2023/01/14 10:13:23;;;;;;;13.13;4.95;;;;;;;-144.87;100.00;61487.56;5046378;28;20040;-76
2023/01/14 10:15:50;;;;;;;24.85;6.43;;;;;;;-144.87;100.00;61487.56;5050490;28;20376;-76
2023/01/14 10:18:37;;;;;;;14.48;5.03;;;;;;;-144.87;100.00;61487.56;5055758;28;20395;-76
2023/01/14 10:21:11;;;;;;;18.90;6.05;;;;;;;-144.87;100.00;61487.56;5061372;28;20269;-77
2023/01/14 10:23:42;;;;;;;13.52;5.03;;;;;;;-144.87;100.00;61487.56;5066856;28;20433;-77
2023/01/14 10:26:18;;;;;;;;;;;;;;;-144.87;100.00;61487.56;5043567;28;20046;-77
2023/01/14 10:28:48;;;;;;;9.25;4.88;;;;;;;-144.87;100.00;61487.56;5040265;28;19924;-76
2023/01/14 10:31:32;;;;;;;21.85;5.80;;;;;;;-144.87;100.00;61487.56;5033990;28;20048;-76
2023/01/14 10:33:58;;;;;;;13.45;6.13;;;;;;;-144.87;100.00;61487.56;5033650;28;20036;-77
2023/01/14 10:36:30;;;;;;;15.38;5.93;;;;;;;-144.87;100.00;61487.56;5033774;28;20418;-77
2023/01/14 10:38:57;;;;;;;13.77;5.10;;;;;;;-144.87;100.00;61487.56;5050964;28;20045;-77
2023/01/14 10:44:21;;;;;;;19.10;5.90;;;;;;;-144.87;100.00;61487.56;5070375;28;20097;-77
2023/01/14 10:46:48;;;;;;;9.77;4.38;;;;;;;-144.87;100.00;61487.56;5064355;28;20044;-77
2023/01/14 10:49:26;;;;;;;14.68;4.45;;;;;;;-144.87;100.00;61487.56;5070600;28;20036;-77
2023/01/14 10:51:52;;;;;;;17.45;4.30;;;;;;;-144.87;100.00;61487.56;5055096;28;20028;-78
2023/01/14 10:54:21;;;;;;;13.25;5.32;;;;;;;-144.87;100.00;61487.56;5053157;28;20040;-76
2023/01/14 10:56:48;;;;;;;10.27;4.63;;;;;;;-144.87;100.00;61487.56;5052108;28;20051;-76
2023/01/14 10:59:39;;;;;;;9.75;4.00;;;;;;;-144.87;100.00;61487.56;5019882;28;20510;-79
2023/01/14 11:02:17;;;;;;;12.10;4.20;;;;;;;-144.87;100.00;61487.56;5030101;28;20036;-76
2023/01/14 11:04:44;;;;;;;11.48;3.70;;;;;;;-144.87;100.00;61487.56;5059678;28;20071;-78
2023/01/14 11:07:12;;;;;;;10.73;3.40;;;;;;;-144.87;100.00;61487.56;5058107;28;20368;-77
2023/01/14 11:09:39;;;;;;;9.70;3.40;;;;;;;-144.87;100.00;61487.56;5051271;28;20717;-78
2023/01/14 11:12:06;;;;;;;7.28;3.63;;;;;;;-144.87;100.00;61487.56;5050233;28;20032;-78
2023/01/14 11:14:37;;;;;;;10.25;3.80;;;;;;;-144.87;100.00;61487.56;5032667;28;20040;-78
2023/01/14 11:17:23;;;;;;;11.32;4.03;;;;;;;-144.87;100.00;61487.56;5039473;28;20040;-78
2023/01/14 11:19:51;;;;;;;9.25;3.00;;;;;;;-144.87;100.00;61487.56;5069098;28;20062;-77
2023/01/14 11:22:19;;;;;;;8.32;3.10;;;;;;;-144.87;100.00;61487.56;5048278;28;20475;-78
2023/01/14 11:24:50;;;;;;;10.68;4.03;;;;;;;-144.87;100.00;61487.56;5069233;28;20045;-78
2023/01/14 11:27:22;;;;;;;10.00;3.15;;;;;;;-144.87;100.00;61487.56;5051994;28;20106;-77
2023/01/14 11:29:52;;;;;;;8.27;3.40;;;;;;;-144.87;100.00;61487.56;5049345;28;20453;-78
2023/01/14 11:32:26;;;;;;;7.03;3.03;;;;;;;-144.87;100.00;61487.56;5065536;28;20030;-78
2023/01/14 11:34:58;;;;;;;8.30;3.33;;;;;;;-144.87;100.00;61487.56;5068423;28;20054;-78
2023/01/14 11:37:54;;;;;;;8.18;3.30;;;;;;;-144.87;100.00;61487.56;5066619;28;20028;-78
2023/01/14 11:43:25;;;;;;;7.80;3.47;;;;;;;-144.87;100.00;61487.56;5064608;28;20131;-78
2023/01/14 11:46:14;;;;;;;6.80;3.25;;;;;;;-144.87;100.00;61487.56;5065281;28;20593;-77